sensor_id;sensor_type;location;lat;lon;timestamp;temperature;humidity
65421;DHT22;52028;50.658;14.004;2022-10-16T00:01:15;13.51;89.71
65421;DHT22;52028;50.658;14.004;2022-10-16T00:03:42;13.54;89.54
65421;DHT22;52028;50.658;14.004;2022-10-16T00:06:09;13.56;89.59
65421;DHT22;52028;50.658;14.004;2022-10-16T00:08:35;13.54;89.71
65421;DHT22;52028;50.658;14.004;2022-10-16T00:11:16;13.48;89.77
65421;DHT22;52028;50.658;14.004;2022-10-16T00:13:44;13.43;90.01
65421;DHT22;52028;50.658;14.004;2022-10-16T00:16:11;13.43;90.15
65421;DHT22;52028;50.658;14.004;2022-10-16T00:18:37;13.44;90.03
65421;DHT22;52028;50.658;14.004;2022-10-16T00:21:08;13.42;90.13
65421;DHT22;52028;50.658;14.004;2022-10-16T00:23:33;13.43;90.06
65421;DHT22;52028;50.658;14.004;2022-10-16T00:26:02;13.43;89.98
65421;DHT22;52028;50.658;14.004;2022-10-16T00:28:29;13.35;90.14
65421;DHT22;52028;50.658;14.004;2022-10-16T00:30:54;13.30;90.30
65421;DHT22;52028;50.658;14.004;2022-10-16T00:33:20;13.36;90.46
65421;DHT22;52028;50.658;14.004;2022-10-16T00:35:45;13.48;90.35
65421;DHT22;52028;50.658;14.004;2022-10-16T00:38:11;13.54;90.02
65421;DHT22;52028;50.658;14.004;2022-10-16T00:40:36;13.57;89.80
65421;DHT22;52028;50.658;14.004;2022-10-16T00:43:02;13.50;90.02
65421;DHT22;52028;50.658;14.004;2022-10-16T00:45:27;13.51;90.08
65421;DHT22;52028;50.658;14.004;2022-10-16T00:47:55;13.50;90.10
65421;DHT22;52028;50.658;14.004;2022-10-16T00:50:25;13.60;90.08
65421;DHT22;52028;50.658;14.004;2022-10-16T00:52:52;13.70;89.82
65421;DHT22;52028;50.658;14.004;2022-10-16T00:55:18;13.61;89.90
65421;DHT22;52028;50.658;14.004;2022-10-16T00:57:44;13.67;89.75
65421;DHT22;52028;50.658;14.004;2022-10-16T01:00:13;13.78;89.48
65421;DHT22;52028;50.658;14.004;2022-10-16T01:02:38;13.78;89.34
65421;DHT22;52028;50.658;14.004;2022-10-16T01:05:04;13.54;89.84
65421;DHT22;52028;50.658;14.004;2022-10-16T01:07:49;13.68;89.99
65421;DHT22;52028;50.658;14.004;2022-10-16T01:11:02;13.39;90.52
65421;DHT22;52028;50.658;14.004;2022-10-16T01:13:46;13.57;90.38
65421;DHT22;52028;50.658;14.004;2022-10-16T01:16:25;13.74;90.00
65421;DHT22;52028;50.658;14.004;2022-10-16T01:19:05;13.84;89.49
65421;DHT22;52028;50.658;14.004;2022-10-16T01:21:36;13.54;89.94
65421;DHT22;52028;50.658;14.004;2022-10-16T01:34:51;13.74;90.29
65421;DHT22;52028;50.658;14.004;2022-10-16T01:37:25;13.73;90.09
65421;DHT22;52028;50.658;14.004;2022-10-16T01:39:54;13.79;89.86
65421;DHT22;52028;50.658;14.004;2022-10-16T01:42:22;13.85;89.84
65421;DHT22;52028;50.658;14.004;2022-10-16T01:44:50;13.86;89.83
65421;DHT22;52028;50.658;14.004;2022-10-16T01:47:16;13.94;89.71
65421;DHT22;52028;50.658;14.004;2022-10-16T01:49:44;13.99;89.37
65421;DHT22;52028;50.658;14.004;2022-10-16T01:52:14;14.13;88.98
65421;DHT22;52028;50.658;14.004;2022-10-16T01:54:42;14.22;88.74
65421;DHT22;52028;50.658;14.004;2022-10-16T01:57:10;13.98;89.07
65421;DHT22;52028;50.658;14.004;2022-10-16T01:59:42;14.09;89.11
65421;DHT22;52028;50.658;14.004;2022-10-16T02:02:09;14.19;88.76
65421;DHT22;52028;50.658;14.004;2022-10-16T02:04:40;14.20;88.72
65421;DHT22;52028;50.658;14.004;2022-10-16T02:07:07;14.29;88.56
65421;DHT22;52028;50.658;14.004;2022-10-16T02:09:33;14.36;88.32
65421;DHT22;52028;50.658;14.004;2022-10-16T02:12:01;14.33;88.24
65421;DHT22;52028;50.658;14.004;2022-10-16T02:14:29;14.38;88.14
65421;DHT22;52028;50.658;14.004;2022-10-16T02:16:55;14.34;88.10
65421;DHT22;52028;50.658;14.004;2022-10-16T02:19:20;14.34;88.22
65421;DHT22;52028;50.658;14.004;2022-10-16T02:21:51;14.34;88.19
65421;DHT22;52028;50.658;14.004;2022-10-16T02:24:33;14.40;87.94
65421;DHT22;52028;50.658;14.004;2022-10-16T02:27:10;14.33;88.09
65421;DHT22;52028;50.658;14.004;2022-10-16T02:29:42;14.22;88.53
65421;DHT22;52028;50.658;14.004;2022-10-16T02:32:12;14.08;89.07
65421;DHT22;52028;50.658;14.004;2022-10-16T02:34:39;14.05;89.33
65421;DHT22;52028;50.658;14.004;2022-10-16T02:37:05;14.09;89.47
65421;DHT22;52028;50.658;14.004;2022-10-16T02:39:32;14.19;89.30
65421;DHT22;52028;50.658;14.004;2022-10-16T02:41:58;14.20;89.19
65421;DHT22;52028;50.658;14.004;2022-10-16T02:44:23;14.27;89.12
65421;DHT22;52028;50.658;14.004;2022-10-16T02:46:48;14.32;88.98
65421;DHT22;52028;50.658;14.004;2022-10-16T02:49:13;14.36;88.88
65421;DHT22;52028;50.658;14.004;2022-10-16T02:51:39;14.36;88.85
65421;DHT22;52028;50.658;14.004;2022-10-16T02:54:04;14.34;89.02
65421;DHT22;52028;50.658;14.004;2022-10-16T02:56:29;14.32;89.21
65421;DHT22;52028;50.658;14.004;2022-10-16T02:58:56;14.37;89.29
65421;DHT22;52028;50.658;14.004;2022-10-16T03:01:21;14.34;89.15
65421;DHT22;52028;50.658;14.004;2022-10-16T03:03:46;13.95;90.20
65421;DHT22;52028;50.658;14.004;2022-10-16T03:06:12;13.82;90.79
65421;DHT22;52028;50.658;14.004;2022-10-16T03:08:37;13.78;91.11
65421;DHT22;52028;50.658;14.004;2022-10-16T03:11:02;13.84;91.12
65421;DHT22;52028;50.658;14.004;2022-10-16T03:13:28;13.82;91.33
65421;DHT22;52028;50.658;14.004;2022-10-16T03:15:53;14.01;91.04
65421;DHT22;52028;50.658;14.004;2022-10-16T03:18:18;14.09;90.72
65421;DHT22;52028;50.658;14.004;2022-10-16T03:20:44;14.10;90.56
65421;DHT22;52028;50.658;14.004;2022-10-16T03:23:09;14.23;90.39
65421;DHT22;52028;50.658;14.004;2022-10-16T03:25:35;14.34;89.92
65421;DHT22;52028;50.658;14.004;2022-10-16T03:28:00;14.30;89.67
65421;DHT22;52028;50.658;14.004;2022-10-16T03:30:25;14.29;89.82
65421;DHT22;52028;50.658;14.004;2022-10-16T03:32:51;14.22;90.02
65421;DHT22;52028;50.658;14.004;2022-10-16T03:35:23;14.23;90.08
65421;DHT22;52028;50.658;14.004;2022-10-16T03:37:49;14.27;89.99
65421;DHT22;52028;50.658;14.004;2022-10-16T03:40:15;14.32;89.97
65421;DHT22;52028;50.658;14.004;2022-10-16T03:42:44;14.26;90.01
65421;DHT22;52028;50.658;14.004;2022-10-16T03:45:10;14.37;89.95
65421;DHT22;52028;50.658;14.004;2022-10-16T03:47:36;14.43;89.72
65421;DHT22;52028;50.658;14.004;2022-10-16T03:50:02;14.44;89.61
65421;DHT22;52028;50.658;14.004;2022-10-16T03:52:28;14.48;89.46
65421;DHT22;52028;50.658;14.004;2022-10-16T03:54:53;14.44;89.50
65421;DHT22;52028;50.658;14.004;2022-10-16T03:57:18;14.47;89.35
65421;DHT22;52028;50.658;14.004;2022-10-16T03:59:44;14.44;89.50
65421;DHT22;52028;50.658;14.004;2022-10-16T04:02:09;14.46;89.63
65421;DHT22;52028;50.658;14.004;2022-10-16T04:04:35;14.56;89.38
65421;DHT22;52028;50.658;14.004;2022-10-16T04:07:00;14.59;89.15
65421;DHT22;52028;50.658;14.004;2022-10-16T04:09:26;14.34;89.74
65421;DHT22;52028;50.658;14.004;2022-10-16T04:11:51;14.37;89.96
65421;DHT22;52028;50.658;14.004;2022-10-16T04:14:16;14.44;89.63
65421;DHT22;52028;50.658;14.004;2022-10-16T04:16:42;14.30;89.74
65421;DHT22;52028;50.658;14.004;2022-10-16T04:19:08;14.34;89.93
65421;DHT22;52028;50.658;14.004;2022-10-16T04:21:33;14.36;89.82
65421;DHT22;52028;50.658;14.004;2022-10-16T04:23:59;14.37;89.85
65421;DHT22;52028;50.658;14.004;2022-10-16T04:26:24;14.43;89.62
65421;DHT22;52028;50.658;14.004;2022-10-16T04:28:49;14.41;89.66
65421;DHT22;52028;50.658;14.004;2022-10-16T04:31:15;14.50;89.56
65421;DHT22;52028;50.658;14.004;2022-10-16T04:33:42;14.54;89.43
65421;DHT22;52028;50.658;14.004;2022-10-16T04:36:08;14.56;89.21
65421;DHT22;52028;50.658;14.004;2022-10-16T04:38:34;14.43;89.45
65421;DHT22;52028;50.658;14.004;2022-10-16T04:40:59;14.41;89.72
65421;DHT22;52028;50.658;14.004;2022-10-16T04:43:25;14.38;89.95
65421;DHT22;52028;50.658;14.004;2022-10-16T04:45:51;14.44;89.88
65421;DHT22;52028;50.658;14.004;2022-10-16T04:48:17;14.40;90.01
65421;DHT22;52028;50.658;14.004;2022-10-16T04:50:42;14.34;90.03
65421;DHT22;52028;50.658;14.004;2022-10-16T04:53:07;14.25;90.33
65421;DHT22;52028;50.658;14.004;2022-10-16T04:55:33;14.27;90.69
65421;DHT22;52028;50.658;14.004;2022-10-16T04:57:58;14.23;90.71
65421;DHT22;52028;50.658;14.004;2022-10-16T05:00:23;14.26;90.76
65421;DHT22;52028;50.658;14.004;2022-10-16T05:02:52;14.38;90.49
65421;DHT22;52028;50.658;14.004;2022-10-16T05:05:17;14.38;90.38
65421;DHT22;52028;50.658;14.004;2022-10-16T05:07:45;14.41;90.26
65421;DHT22;52028;50.658;14.004;2022-10-16T05:10:10;14.32;90.25
65421;DHT22;52028;50.658;14.004;2022-10-16T05:12:35;14.40;90.32
65421;DHT22;52028;50.658;14.004;2022-10-16T05:15:01;14.48;90.13
65421;DHT22;52028;50.658;14.004;2022-10-16T05:17:26;14.51;90.09
65421;DHT22;52028;50.658;14.004;2022-10-16T05:19:52;14.53;89.88
65421;DHT22;52028;50.658;14.004;2022-10-16T05:22:17;14.57;89.77
65421;DHT22;52028;50.658;14.004;2022-10-16T05:24:43;14.56;89.84
65421;DHT22;52028;50.658;14.004;2022-10-16T05:27:08;14.60;89.74
65421;DHT22;52028;50.658;14.004;2022-10-16T05:29:33;14.44;89.82
65421;DHT22;52028;50.658;14.004;2022-10-16T05:31:59;14.33;90.45
65421;DHT22;52028;50.658;14.004;2022-10-16T05:34:24;14.29;90.70
65421;DHT22;52028;50.658;14.004;2022-10-16T05:36:49;14.40;90.58
65421;DHT22;52028;50.658;14.004;2022-10-16T05:39:15;14.40;90.38
65421;DHT22;52028;50.658;14.004;2022-10-16T05:41:42;14.41;90.41
65421;DHT22;52028;50.658;14.004;2022-10-16T05:44:07;14.40;90.44
65421;DHT22;52028;50.658;14.004;2022-10-16T05:46:33;14.41;90.49
65421;DHT22;52028;50.658;14.004;2022-10-16T05:48:58;14.43;90.50
65421;DHT22;52028;50.658;14.004;2022-10-16T05:51:24;14.50;90.42
65421;DHT22;52028;50.658;14.004;2022-10-16T05:53:49;14.46;90.31
65421;DHT22;52028;50.658;14.004;2022-10-16T05:56:15;14.47;90.25
65421;DHT22;52028;50.658;14.004;2022-10-16T05:58:41;14.59;90.02
65421;DHT22;52028;50.658;14.004;2022-10-16T06:01:14;14.50;90.07
65421;DHT22;52028;50.658;14.004;2022-10-16T06:03:41;14.50;90.25
65421;DHT22;52028;50.658;14.004;2022-10-16T06:06:17;14.51;90.16
65421;DHT22;52028;50.658;14.004;2022-10-16T06:08:43;14.56;90.02
65421;DHT22;52028;50.658;14.004;2022-10-16T06:11:12;14.56;90.08
65421;DHT22;52028;50.658;14.004;2022-10-16T06:13:38;14.64;89.87
65421;DHT22;52028;50.658;14.004;2022-10-16T06:16:07;14.63;89.76
65421;DHT22;52028;50.658;14.004;2022-10-16T06:18:32;14.60;90.20
65421;DHT22;52028;50.658;14.004;2022-10-16T06:20:58;14.77;90.02
65421;DHT22;52028;50.658;14.004;2022-10-16T06:23:24;14.85;89.48
65421;DHT22;52028;50.658;14.004;2022-10-16T06:25:50;14.91;89.29
65421;DHT22;52028;50.658;14.004;2022-10-16T06:28:15;14.95;89.25
65421;DHT22;52028;50.658;14.004;2022-10-16T06:30:41;15.05;89.07
65421;DHT22;52028;50.658;14.004;2022-10-16T06:33:09;15.06;88.96
65421;DHT22;52028;50.658;14.004;2022-10-16T06:35:34;15.22;88.79
65421;DHT22;52028;50.658;14.004;2022-10-16T06:38:00;15.16;88.49
65421;DHT22;52028;50.658;14.004;2022-10-16T06:40:26;15.15;88.88
65421;DHT22;52028;50.658;14.004;2022-10-16T06:42:51;15.20;88.80
65421;DHT22;52028;50.658;14.004;2022-10-16T06:45:19;15.47;88.34
65421;DHT22;52028;50.658;14.004;2022-10-16T06:47:44;15.77;87.65
65421;DHT22;52028;50.658;14.004;2022-10-16T06:50:10;15.87;87.15
65421;DHT22;52028;50.658;14.004;2022-10-16T06:52:35;15.88;86.94
65421;DHT22;52028;50.658;14.004;2022-10-16T06:55:00;16.05;86.62
65421;DHT22;52028;50.658;14.004;2022-10-16T06:57:26;16.22;86.16
65421;DHT22;52028;50.658;14.004;2022-10-16T06:59:52;16.40;85.61
65421;DHT22;52028;50.658;14.004;2022-10-16T07:02:17;16.43;85.11
65421;DHT22;52028;50.658;14.004;2022-10-16T07:04:42;16.33;85.39
65421;DHT22;52028;50.658;14.004;2022-10-16T07:07:07;16.33;85.46
65421;DHT22;52028;50.658;14.004;2022-10-16T07:09:33;16.64;85.18
65421;DHT22;52028;50.658;14.004;2022-10-16T07:11:58;16.75;84.70
65421;DHT22;52028;50.658;14.004;2022-10-16T07:14:23;17.06;83.81
65421;DHT22;52028;50.658;14.004;2022-10-16T07:16:49;17.02;83.47
65421;DHT22;52028;50.658;14.004;2022-10-16T07:19:14;17.03;83.68
65421;DHT22;52028;50.658;14.004;2022-10-16T07:21:42;17.05;83.67
65421;DHT22;52028;50.658;14.004;2022-10-16T07:24:12;17.02;83.35
65421;DHT22;52028;50.658;14.004;2022-10-16T07:26:38;16.89;83.71
65421;DHT22;52028;50.658;14.004;2022-10-16T07:29:06;17.03;83.65
65421;DHT22;52028;50.658;14.004;2022-10-16T07:31:33;16.99;83.20
65421;DHT22;52028;50.658;14.004;2022-10-16T07:33:59;16.96;83.44
65421;DHT22;52028;50.658;14.004;2022-10-16T07:36:25;16.99;83.44
65421;DHT22;52028;50.658;14.004;2022-10-16T07:38:50;16.95;83.78
65421;DHT22;52028;50.658;14.004;2022-10-16T07:41:17;17.11;83.71
65421;DHT22;52028;50.658;14.004;2022-10-16T07:43:47;17.18;83.52
65421;DHT22;52028;50.658;14.004;2022-10-16T07:46:14;17.29;83.35
65421;DHT22;52028;50.658;14.004;2022-10-16T07:48:40;17.46;83.17
65421;DHT22;52028;50.658;14.004;2022-10-16T07:51:07;17.65;82.43
65421;DHT22;52028;50.658;14.004;2022-10-16T07:53:33;17.91;81.87
65421;DHT22;52028;50.658;14.004;2022-10-16T07:56:04;18.25;81.00
65421;DHT22;52028;50.658;14.004;2022-10-16T07:58:30;18.55;80.01
65421;DHT22;52028;50.658;14.004;2022-10-16T08:00:56;18.72;79.68
65421;DHT22;52028;50.658;14.004;2022-10-16T08:03:21;18.89;79.18
65421;DHT22;52028;50.658;14.004;2022-10-16T08:05:47;19.00;78.19
65421;DHT22;52028;50.658;14.004;2022-10-16T08:08:13;18.98;77.90
65421;DHT22;52028;50.658;14.004;2022-10-16T08:10:39;19.12;77.44
65421;DHT22;52028;50.658;14.004;2022-10-16T08:13:05;19.31;76.98
65421;DHT22;52028;50.658;14.004;2022-10-16T08:15:33;19.49;76.18
65421;DHT22;52028;50.658;14.004;2022-10-16T08:18:04;19.47;75.97
65421;DHT22;52028;50.658;14.004;2022-10-16T08:20:31;19.38;75.95
65421;DHT22;52028;50.658;14.004;2022-10-16T08:22:56;19.12;76.38
65421;DHT22;52028;50.658;14.004;2022-10-16T08:25:23;19.13;76.61
65421;DHT22;52028;50.658;14.004;2022-10-16T08:27:48;19.12;76.73
65421;DHT22;52028;50.658;14.004;2022-10-16T08:30:15;19.22;76.67
65421;DHT22;52028;50.658;14.004;2022-10-16T08:32:41;19.22;76.76
65421;DHT22;52028;50.658;14.004;2022-10-16T08:35:08;19.35;76.17
65421;DHT22;52028;50.658;14.004;2022-10-16T08:37:34;19.50;75.69
65421;DHT22;52028;50.658;14.004;2022-10-16T08:39:59;19.58;75.59
65421;DHT22;52028;50.658;14.004;2022-10-16T08:42:31;19.50;75.81
65421;DHT22;52028;50.658;14.004;2022-10-16T08:47:43;19.19;76.93
65421;DHT22;52028;50.658;14.004;2022-10-16T08:50:13;19.28;76.94
65421;DHT22;52028;50.658;14.004;2022-10-16T08:52:42;19.41;76.65
65421;DHT22;52028;50.658;14.004;2022-10-16T08:55:25;19.55;76.21
65421;DHT22;52028;50.658;14.004;2022-10-16T08:57:53;19.71;75.95
65421;DHT22;52028;50.658;14.004;2022-10-16T09:00:18;19.88;75.84
65421;DHT22;52028;50.658;14.004;2022-10-16T09:02:50;20.20;74.84
65421;DHT22;52028;50.658;14.004;2022-10-16T09:05:31;20.44;74.09
65421;DHT22;52028;50.658;14.004;2022-10-16T09:13:45;20.19;74.06
65421;DHT22;52028;50.658;14.004;2022-10-16T09:16:34;20.02;74.43
65421;DHT22;52028;50.658;14.004;2022-10-16T09:19:17;20.30;74.08
65421;DHT22;52028;50.658;14.004;2022-10-16T09:21:46;20.41;72.95
65421;DHT22;52028;50.658;14.004;2022-10-16T09:24:16;20.48;72.97
65421;DHT22;52028;50.658;14.004;2022-10-16T09:26:43;20.59;72.57
65421;DHT22;52028;50.658;14.004;2022-10-16T09:29:19;20.71;71.77
65421;DHT22;52028;50.658;14.004;2022-10-16T09:31:46;20.71;72.01
65421;DHT22;52028;50.658;14.004;2022-10-16T09:34:32;20.58;72.48
65421;DHT22;52028;50.658;14.004;2022-10-16T09:36:59;20.68;72.42
65421;DHT22;52028;50.658;14.004;2022-10-16T09:39:25;20.64;72.38
65421;DHT22;52028;50.658;14.004;2022-10-16T09:41:51;20.72;72.23
65421;DHT22;52028;50.658;14.004;2022-10-16T09:44:29;20.78;72.27
65421;DHT22;52028;50.658;14.004;2022-10-16T09:47:06;20.79;72.27
65421;DHT22;52028;50.658;14.004;2022-10-16T09:49:37;20.51;72.83
65421;DHT22;52028;50.658;14.004;2022-10-16T09:52:13;20.52;72.88
65421;DHT22;52028;50.658;14.004;2022-10-16T09:54:52;20.78;72.65
65421;DHT22;52028;50.658;14.004;2022-10-16T09:57:19;20.92;71.47
65421;DHT22;52028;50.658;14.004;2022-10-16T09:59:57;21.03;71.00
65421;DHT22;52028;50.658;14.004;2022-10-16T10:02:29;21.30;70.59
65421;DHT22;52028;50.658;14.004;2022-10-16T10:04:55;21.74;69.06
65421;DHT22;52028;50.658;14.004;2022-10-16T10:07:27;22.19;67.90
65421;DHT22;52028;50.658;14.004;2022-10-16T10:09:54;22.19;66.90
65421;DHT22;52028;50.658;14.004;2022-10-16T10:12:21;21.62;69.11
65421;DHT22;52028;50.658;14.004;2022-10-16T10:14:49;21.89;68.28
65421;DHT22;52028;50.658;14.004;2022-10-16T10:17:26;22.08;68.09
65421;DHT22;52028;50.658;14.004;2022-10-16T10:25:15;22.34;66.98
65421;DHT22;52028;50.658;14.004;2022-10-16T10:33:50;21.98;67.92
65421;DHT22;52028;50.658;14.004;2022-10-16T10:36:38;22.00;67.56
65421;DHT22;52028;50.658;14.004;2022-10-16T10:57:43;21.46;70.17
65421;DHT22;52028;50.658;14.004;2022-10-16T11:00:09;21.46;70.22
65421;DHT22;52028;50.658;14.004;2022-10-16T11:05:33;21.55;69.76
65421;DHT22;52028;50.658;14.004;2022-10-16T11:08:19;21.41;70.53
65421;DHT22;52028;50.658;14.004;2022-10-16T11:10:54;21.74;70.11
65421;DHT22;52028;50.658;14.004;2022-10-16T11:15:58;22.13;68.58
65421;DHT22;52028;50.658;14.004;2022-10-16T11:18:36;21.77;68.96
65421;DHT22;52028;50.658;14.004;2022-10-16T11:21:07;21.74;69.37
65421;DHT22;52028;50.658;14.004;2022-10-16T11:26:24;22.71;66.72
65421;DHT22;52028;50.658;14.004;2022-10-16T11:28:53;23.16;65.34
65421;DHT22;52028;50.658;14.004;2022-10-16T11:31:37;23.40;64.87
65421;DHT22;52028;50.658;14.004;2022-10-16T11:36:44;24.26;63.38
65421;DHT22;52028;50.658;14.004;2022-10-16T11:39:26;24.17;62.77
65421;DHT22;52028;50.658;14.004;2022-10-16T11:42:11;24.53;61.73
65421;DHT22;52028;50.658;14.004;2022-10-16T11:49:31;25.45;57.65
65421;DHT22;52028;50.658;14.004;2022-10-16T11:52:11;25.60;57.02
65421;DHT22;52028;50.658;14.004;2022-10-16T11:57:19;24.34;60.59
65421;DHT22;52028;50.658;14.004;2022-10-16T12:05:13;23.64;63.08
65421;DHT22;52028;50.658;14.004;2022-10-16T12:10:26;23.86;61.81
65421;DHT22;52028;50.658;14.004;2022-10-16T12:12:53;24.48;60.60
65421;DHT22;52028;50.658;14.004;2022-10-16T12:15:20;24.71;59.40
65421;DHT22;52028;50.658;14.004;2022-10-16T12:17:47;24.39;60.36
65421;DHT22;52028;50.658;14.004;2022-10-16T12:22:51;23.85;62.11
65421;DHT22;52028;50.658;14.004;2022-10-16T12:25:33;23.61;62.42
65421;DHT22;52028;50.658;14.004;2022-10-16T12:28:05;23.53;62.99
65421;DHT22;52028;50.658;14.004;2022-10-16T12:30:34;23.64;63.32
65421;DHT22;52028;50.658;14.004;2022-10-16T12:33:03;23.72;62.04
65421;DHT22;52028;50.658;14.004;2022-10-16T12:35:34;23.81;61.74
65421;DHT22;52028;50.658;14.004;2022-10-16T12:38:17;23.71;62.30
65421;DHT22;52028;50.658;14.004;2022-10-16T12:40:44;23.90;61.78
65421;DHT22;52028;50.658;14.004;2022-10-16T12:43:25;24.06;60.96
65421;DHT22;52028;50.658;14.004;2022-10-16T12:48:38;23.88;61.20
65421;DHT22;52028;50.658;14.004;2022-10-16T12:51:34;24.01;61.37
65421;DHT22;52028;50.658;14.004;2022-10-16T13:12:35;24.19;60.85
65421;DHT22;52028;50.658;14.004;2022-10-16T13:26:24;25.93;55.97
65421;DHT22;52028;50.658;14.004;2022-10-16T13:28:51;28.36;50.29
65421;DHT22;52028;50.658;14.004;2022-10-16T13:31:20;27.99;51.18
65421;DHT22;52028;50.658;14.004;2022-10-16T13:33:49;27.72;51.16
65421;DHT22;52028;50.658;14.004;2022-10-16T13:36:26;28.33;50.32
65421;DHT22;52028;50.658;14.004;2022-10-16T13:39:11;29.00;47.93
65421;DHT22;52028;50.658;14.004;2022-10-16T13:41:38;28.53;49.30
65421;DHT22;52028;50.658;14.004;2022-10-16T13:44:03;27.24;51.47
65421;DHT22;52028;50.658;14.004;2022-10-16T13:46:30;28.19;49.62
65421;DHT22;52028;50.658;14.004;2022-10-16T13:49:01;29.34;46.69
65421;DHT22;52028;50.658;14.004;2022-10-16T13:51:27;28.53;48.36
65421;DHT22;52028;50.658;14.004;2022-10-16T13:53:55;26.95;52.32
65421;DHT22;52028;50.658;14.004;2022-10-16T13:56:22;26.50;53.52
65421;DHT22;52028;50.658;14.004;2022-10-16T13:59:27;26.33;53.99
65421;DHT22;52028;50.658;14.004;2022-10-16T14:01:58;26.37;54.52
65421;DHT22;52028;50.658;14.004;2022-10-16T14:04:32;25.82;55.19
65421;DHT22;52028;50.658;14.004;2022-10-16T14:06:58;25.43;56.17
65421;DHT22;52028;50.658;14.004;2022-10-16T14:09:26;25.17;56.82
65421;DHT22;52028;50.658;14.004;2022-10-16T14:11:58;25.05;57.63
65421;DHT22;52028;50.658;14.004;2022-10-16T14:14:27;25.10;57.98
65421;DHT22;52028;50.658;14.004;2022-10-16T14:16:57;25.08;58.10
65421;DHT22;52028;50.658;14.004;2022-10-16T14:19:25;25.08;58.11
65421;DHT22;52028;50.658;14.004;2022-10-16T14:21:52;25.12;58.06
65421;DHT22;52028;50.658;14.004;2022-10-16T14:26:55;25.82;56.55
65421;DHT22;52028;50.658;14.004;2022-10-16T14:29:21;27.02;53.32
65421;DHT22;52028;50.658;14.004;2022-10-16T14:31:58;27.65;51.46
65421;DHT22;52028;50.658;14.004;2022-10-16T14:34:31;28.99;48.46
65421;DHT22;52028;50.658;14.004;2022-10-16T14:37:00;29.86;45.46
65421;DHT22;52028;50.658;14.004;2022-10-16T14:39:30;29.95;43.08
65421;DHT22;52028;50.658;14.004;2022-10-16T14:41:56;30.01;42.15
65421;DHT22;52028;50.658;14.004;2022-10-16T14:44:28;29.05;43.61
65421;DHT22;52028;50.658;14.004;2022-10-16T14:46:54;29.06;43.62
65421;DHT22;52028;50.658;14.004;2022-10-16T14:49:22;28.83;44.03
65421;DHT22;52028;50.658;14.004;2022-10-16T14:51:48;28.19;45.05
65421;DHT22;52028;50.658;14.004;2022-10-16T14:54:16;27.91;45.68
65421;DHT22;52028;50.658;14.004;2022-10-16T14:56:50;27.54;46.48
65421;DHT22;52028;50.658;14.004;2022-10-16T14:59:37;27.33;47.12
65421;DHT22;52028;50.658;14.004;2022-10-16T15:04:43;25.51;51.75
65421;DHT22;52028;50.658;14.004;2022-10-16T15:07:08;24.93;53.27
65421;DHT22;52028;50.658;14.004;2022-10-16T15:09:34;24.40;53.99
65421;DHT22;52028;50.658;14.004;2022-10-16T15:11:59;24.14;55.08
65421;DHT22;52028;50.658;14.004;2022-10-16T15:14:24;23.88;56.06
65421;DHT22;52028;50.658;14.004;2022-10-16T15:16:50;23.82;56.23
65421;DHT22;52028;50.658;14.004;2022-10-16T15:19:15;23.75;56.60
65421;DHT22;52028;50.658;14.004;2022-10-16T15:21:41;23.40;57.74
65421;DHT22;52028;50.658;14.004;2022-10-16T15:24:12;23.19;58.41
65421;DHT22;52028;50.658;14.004;2022-10-16T15:26:38;23.10;58.15
65421;DHT22;52028;50.658;14.004;2022-10-16T15:29:03;22.99;57.97
65421;DHT22;52028;50.658;14.004;2022-10-16T15:31:29;22.79;58.59
65421;DHT22;52028;50.658;14.004;2022-10-16T15:33:54;22.88;58.45
65421;DHT22;52028;50.658;14.004;2022-10-16T15:36:41;23.44;57.26
65421;DHT22;52028;50.658;14.004;2022-10-16T15:39:15;24.03;55.85
65421;DHT22;52028;50.658;14.004;2022-10-16T15:41:42;24.16;55.27
65421;DHT22;52028;50.658;14.004;2022-10-16T15:44:07;24.12;55.20
65421;DHT22;52028;50.658;14.004;2022-10-16T15:46:33;23.79;56.26
65421;DHT22;52028;50.658;14.004;2022-10-16T15:48:59;23.61;56.99
65421;DHT22;52028;50.658;14.004;2022-10-16T15:51:26;23.34;57.91
65421;DHT22;52028;50.658;14.004;2022-10-16T15:53:54;23.17;58.54
65421;DHT22;52028;50.658;14.004;2022-10-16T15:56:21;23.00;59.02
65421;DHT22;52028;50.658;14.004;2022-10-16T15:58:47;22.76;59.82
65421;DHT22;52028;50.658;14.004;2022-10-16T16:01:13;22.55;60.72
65421;DHT22;52028;50.658;14.004;2022-10-16T16:03:39;22.44;61.14
65421;DHT22;52028;50.658;14.004;2022-10-16T16:06:10;22.24;61.79
65421;DHT22;52028;50.658;14.004;2022-10-16T16:08:36;22.13;62.13
65421;DHT22;52028;50.658;14.004;2022-10-16T16:11:06;21.89;63.05
65421;DHT22;52028;50.658;14.004;2022-10-16T16:13:32;21.71;63.34
65421;DHT22;52028;50.658;14.004;2022-10-16T16:15:57;21.50;63.91
65421;DHT22;52028;50.658;14.004;2022-10-16T16:18:23;21.44;64.77
65421;DHT22;52028;50.658;14.004;2022-10-16T16:20:49;21.22;65.67
65421;DHT22;52028;50.658;14.004;2022-10-16T16:23:15;21.00;67.07
65421;DHT22;52028;50.658;14.004;2022-10-16T16:25:40;20.81;67.08
65421;DHT22;52028;50.658;14.004;2022-10-16T16:28:05;20.72;67.26
65421;DHT22;52028;50.658;14.004;2022-10-16T16:30:32;20.57;68.41
65421;DHT22;52028;50.658;14.004;2022-10-16T16:32:57;20.44;68.75
65421;DHT22;52028;50.658;14.004;2022-10-16T16:35:23;20.23;69.78
65421;DHT22;52028;50.658;14.004;2022-10-16T16:37:48;20.13;69.97
65421;DHT22;52028;50.658;14.004;2022-10-16T16:40:13;20.02;69.89
65421;DHT22;52028;50.658;14.004;2022-10-16T16:42:39;19.93;70.70
65421;DHT22;52028;50.658;14.004;2022-10-16T16:45:05;19.83;71.05
65421;DHT22;52028;50.658;14.004;2022-10-16T16:47:30;19.62;72.30
65421;DHT22;52028;50.658;14.004;2022-10-16T16:49:56;19.37;73.30
65421;DHT22;52028;50.658;14.004;2022-10-16T16:52:21;19.30;73.62
65421;DHT22;52028;50.658;14.004;2022-10-16T16:54:47;19.24;73.65
65421;DHT22;52028;50.658;14.004;2022-10-16T16:57:20;19.12;74.29
65421;DHT22;52028;50.658;14.004;2022-10-16T16:59:45;18.85;75.04
65421;DHT22;52028;50.658;14.004;2022-10-16T17:02:10;18.79;75.76
65421;DHT22;52028;50.658;14.004;2022-10-16T17:04:36;18.69;75.84
65421;DHT22;52028;50.658;14.004;2022-10-16T17:07:01;18.58;76.22
65421;DHT22;52028;50.658;14.004;2022-10-16T17:09:27;18.57;76.29
65421;DHT22;52028;50.658;14.004;2022-10-16T17:11:52;18.47;76.70
65421;DHT22;52028;50.658;14.004;2022-10-16T17:14:18;18.38;76.91
65421;DHT22;52028;50.658;14.004;2022-10-16T17:16:43;18.25;77.41
65421;DHT22;52028;50.658;14.004;2022-10-16T17:19:14;18.12;77.76